Time;durP1;ratioP1;P1;durP2;ratioP2;P2;SDS_P1;SDS_P2;PMS_P1;PMS_P2;Temp;Humidity;BMP_temperature;BMP_pressure;BME280_temperature;BME280_humidity;BME280_pressure;Samples;Min_cycle;Max_cycle;Signal;HPM_P1;HPM_P2
2023/11/22 00:01:20;;;;;;;56.55;25.40;;;0.70;99.90;;;;;;2585685;54;20901;31
2023/11/22 00:03:53;;;;;;;44.25;21.40;;;0.70;99.90;;;;;;2604547;46;20029;31
2023/11/22 00:06:27;;;;;;;41.15;21.60;;;0.70;99.90;;;;;;2585683;54;20951;31
2023/11/22 00:09:00;;;;;;;47.38;21.52;;;0.60;99.90;;;;;;2604224;46;22106;31
2023/11/22 00:11:35;;;;;;;43.25;21.40;;;0.60;99.90;;;;;;2585974;54;20037;31
2023/11/22 00:14:09;;;;;;;48.05;22.00;;;0.60;99.90;;;;;;2585825;54;20899;31
2023/11/22 00:16:46;;;;;;;44.75;23.60;;;0.50;99.90;;;;;;2585805;54;20887;31
2023/11/22 00:19:22;;;;;;;49.95;22.63;;;0.50;99.90;;;;;;2585490;54;21003;31
2023/11/22 00:21:55;;;;;;;50.58;22.60;;;0.50;99.90;;;;;;2585609;54;20815;31
2023/11/22 00:24:30;;;;;;;47.28;21.63;;;0.50;99.90;;;;;;2604147;46;20026;31
2023/11/22 00:27:07;;;;;;;48.03;20.73;;;0.50;99.90;;;;;;2585746;54;20097;31
2023/11/22 00:29:41;;;;;;;42.37;21.23;;;0.50;99.90;;;;;;2585784;54;20056;31
2023/11/22 00:32:15;;;;;;;41.67;20.60;;;0.50;99.90;;;;;;2585721;54;21114;31
2023/11/22 00:34:48;;;;;;;40.20;20.05;;;0.50;99.90;;;;;;2585775;54;20057;31
2023/11/22 00:37:21;;;;;;;41.20;20.70;;;0.60;99.90;;;;;;2585902;54;21972;31
2023/11/22 00:39:56;;;;;;;34.80;17.55;;;;;;;;;;2585648;54;20798;31
2023/11/22 00:42:31;;;;;;;42.22;20.38;;;0.70;99.90;;;;;;2585762;54;20057;31
2023/11/22 00:45:06;;;;;;;40.58;20.38;;;0.60;99.90;;;;;;2585828;54;19942;31
2023/11/22 00:47:40;;;;;;;40.97;19.70;;;0.60;99.90;;;;;;2585733;54;20909;31
2023/11/22 00:50:19;;;;;;;44.40;19.38;;;0.60;99.90;;;;;;2604056;46;20030;31
2023/11/22 00:52:53;;;;;;;35.97;17.73;;;0.60;99.90;;;;;;2603968;46;20124;31
2023/11/22 00:55:29;;;;;;;41.10;19.63;;;0.50;99.90;;;;;;2604113;46;20996;31
2023/11/22 00:58:08;;;;;;;42.38;19.98;;;0.50;99.90;;;;;;2585761;54;20913;31
2023/11/22 01:00:40;;;;;;;39.30;18.38;;;;;;;;;;2591074;54;20078;-79
2023/11/22 01:03:14;;;;;;;38.00;18.80;;;0.60;99.90;;;;;;2585860;54;21022;31
2023/11/22 01:05:50;;;;;;;41.30;19.95;;;;;;;;;;2585686;54;20029;31
2023/11/22 01:08:27;;;;;;;36.10;18.07;;;0.50;99.90;;;;;;2585507;54;20843;31
2023/11/22 01:11:00;;;;;;;37.92;19.45;;;0.50;99.90;;;;;;2604365;46;20816;31
2023/11/22 01:13:32;;;;;;;36.00;18.30;;;;;;;;;;2585435;54;21007;31
2023/11/22 01:16:11;;;;;;;39.58;19.23;;;0.50;99.90;;;;;;2585450;54;20765;31
2023/11/22 01:18:46;;;;;;;39.05;19.33;;;0.50;99.90;;;;;;2585572;54;20917;31
2023/11/22 01:21:22;;;;;;;39.97;20.17;;;0.40;99.90;;;;;;2604111;46;20111;31
2023/11/22 01:23:58;;;;;;;37.25;18.48;;;0.40;99.90;;;;;;2585648;54;20033;31
2023/11/22 01:26:33;;;;;;;37.83;18.80;;;0.50;99.90;;;;;;2585411;54;20981;31
2023/11/22 01:29:08;;;;;;;40.45;18.58;;;0.50;99.90;;;;;;2603863;46;20932;31
2023/11/22 01:31:47;;;;;;;38.95;19.20;;;0.40;99.90;;;;;;2585572;54;20026;31
2023/11/22 01:34:22;;;;;;;33.00;16.95;;;0.40;99.90;;;;;;2585484;54;20137;31
2023/11/22 01:36:57;;;;;;;30.07;17.37;;;0.40;99.90;;;;;;2585396;54;20031;31
2023/11/22 01:39:30;;;;;;;32.20;16.67;;;0.30;99.90;;;;;;2585198;54;20258;31
2023/11/22 01:42:02;;;;;;;34.20;16.60;;;0.30;99.90;;;;;;2604026;46;20030;31
2023/11/22 01:44:36;;;;;;;31.10;16.38;;;0.30;99.90;;;;;;2585553;54;20081;31
2023/11/22 01:47:14;;;;;;;33.67;16.73;;;0.30;99.90;;;;;;2585731;54;20031;31
2023/11/22 01:49:47;;;;;;;39.27;15.63;;;0.30;99.90;;;;;;2585615;54;20895;31
2023/11/22 01:52:22;;;;;;;30.07;15.53;;;0.20;99.90;;;;;;2585409;54;20029;31
2023/11/22 01:54:54;;;;;;;31.05;15.77;;;0.20;99.90;;;;;;2585600;54;21000;31
2023/11/22 01:57:28;;;;;;;28.25;15.85;;;0.20;99.90;;;;;;2603915;46;20972;31
2023/11/22 02:00:04;;;;;;;31.38;15.85;;;0.30;99.90;;;;;;2604043;46;20961;31
2023/11/22 02:02:50;;;;;;;30.23;15.38;;;0.30;99.90;;;;;;2585422;54;20026;31
2023/11/22 02:05:25;;;;;;;30.50;15.00;;;0.60;99.90;;;;;;2585001;54;20022;31
2023/11/22 02:07:58;;;;;;;37.58;16.40;;;0.30;99.90;;;;;;2585440;54;21138;31
2023/11/22 02:10:33;;;;;;;34.43;17.03;;;0.30;99.90;;;;;;2603874;46;20929;31
2023/11/22 02:13:07;;;;;;;34.90;16.85;;;0.30;99.90;;;;;;2585522;54;20030;31
2023/11/22 02:15:39;;;;;;;33.00;16.10;;;0.30;99.90;;;;;;2585374;54;20042;31
2023/11/22 02:18:16;;;;;;;37.17;16.60;;;0.30;99.90;;;;;;2604023;46;21294;31
2023/11/22 02:20:51;;;;;;;32.25;15.65;;;0.30;99.90;;;;;;2585275;54;20030;31
2023/11/22 02:23:28;;;;;;;30.40;15.45;;;0.30;99.90;;;;;;2754152;31;21264;31
2023/11/22 02:26:02;;;;;;;30.48;15.98;;;0.30;99.90;;;;;;2603896;46;20061;31
2023/11/22 02:28:37;;;;;;;34.03;15.35;;;0.30;99.90;;;;;;2585433;54;20034;31
2023/11/22 02:31:13;;;;;;;31.95;15.45;;;0.30;99.90;;;;;;2585342;54;20217;31
2023/11/22 02:33:48;;;;;;;27.85;14.50;;;0.30;99.90;;;;;;2585686;54;20026;31
2023/11/22 02:36:24;;;;;;;27.97;14.23;;;0.20;99.90;;;;;;2585223;54;19961;31
2023/11/22 02:39:00;;;;;;;30.38;15.10;;;0.20;99.90;;;;;;2585298;54;21235;31
2023/11/22 02:41:35;;;;;;;28.80;14.52;;;0.20;99.90;;;;;;2604212;46;20070;31
2023/11/22 02:44:10;;;;;;;32.58;15.20;;;0.20;99.90;;;;;;2584453;54;20031;31
2023/11/22 02:46:45;;;;;;;31.60;15.63;;;0.20;99.90;;;;;;2585096;54;20910;31
2023/11/22 02:49:20;;;;;;;29.95;14.85;;;0.20;99.90;;;;;;2603694;46;20881;31
2023/11/22 02:51:55;;;;;;;35.55;16.95;;;0.20;99.90;;;;;;2585200;54;20998;31
2023/11/22 02:54:32;;;;;;;37.30;17.05;;;0.20;99.90;;;;;;2603544;46;20978;31
2023/11/22 02:57:07;;;;;;;33.03;16.02;;;0.20;99.90;;;;;;2585169;54;21005;31
2023/11/22 02:59:44;;;;;;;33.55;14.60;;;0.20;99.90;;;;;;2585415;54;20906;31
2023/11/22 03:02:18;;;;;;;36.05;15.25;;;0.10;99.90;;;;;;2584974;54;20750;31
2023/11/22 03:04:51;;;;;;;30.15;15.95;;;0.20;99.90;;;;;;2585534;54;20924;31
2023/11/22 03:07:26;;;;;;;31.30;16.48;;;0.20;99.90;;;;;;2585143;54;20871;31
2023/11/22 03:10:03;;;;;;;33.10;15.90;;;0.10;99.90;;;;;;2585313;54;20050;31
2023/11/22 03:12:37;;;;;;;32.05;16.50;;;0.10;99.90;;;;;;2585199;54;20990;31
2023/11/22 03:15:13;;;;;;;35.13;17.58;;;0.10;99.90;;;;;;2603847;46;20027;31
2023/11/22 03:17:49;;;;;;;34.88;16.13;;;0.00;99.90;;;;;;2585377;54;20034;31
2023/11/22 03:20:24;;;;;;;34.15;16.80;;;0.00;99.90;;;;;;2584906;54;20038;31
2023/11/22 03:23:00;;;;;;;33.53;14.82;;;0.10;99.90;;;;;;2585412;54;20983;31
2023/11/22 03:25:36;;;;;;;33.92;15.25;;;0.00;99.90;;;;;;2585235;54;20787;31
2023/11/22 03:28:13;;;;;;;30.85;15.55;;;0.00;99.90;;;;;;2585095;54;20189;31
2023/11/22 03:30:47;;;;;;;38.47;18.50;;;-0.10;99.90;;;;;;2603676;46;20935;31
2023/11/22 03:33:23;;;;;;;32.15;16.15;;;0.00;99.90;;;;;;2585163;54;20080;31
2023/11/22 03:35:57;;;;;;;34.40;17.00;;;0.00;99.90;;;;;;2585196;54;21134;31
2023/11/22 03:38:33;;;;;;;31.92;15.80;;;-0.10;99.90;;;;;;2585318;54;20881;31
2023/11/22 03:41:12;;;;;;;35.10;16.40;;;-0.10;99.90;;;;;;2585245;54;20026;31
2023/11/22 03:43:45;;;;;;;32.00;15.00;;;-0.10;99.90;;;;;;2604084;47;21846;31
2023/11/22 03:46:20;;;;;;;30.35;14.77;;;-0.10;99.90;;;;;;2584999;54;20057;31
2023/11/22 03:48:55;;;;;;;27.65;13.43;;;-0.10;99.90;;;;;;2585308;54;20027;31
2023/11/22 03:51:29;;;;;;;25.02;12.38;;;-0.20;99.90;;;;;;2585080;54;20829;31
2023/11/22 03:54:05;;;;;;;23.55;11.95;;;-0.10;99.90;;;;;;2683042;39;21094;31
2023/11/22 03:56:42;;;;;;;21.03;10.63;;;-0.20;99.90;;;;;;2585081;54;20141;31
2023/11/22 03:59:15;;;;;;;25.35;11.15;;;-0.20;99.90;;;;;;2585405;54;20905;31
2023/11/22 04:01:50;;;;;;;22.52;11.10;;;-0.30;99.90;;;;;;2585297;54;20984;31
2023/11/22 04:04:25;;;;;;;19.70;10.67;;;-0.30;99.90;;;;;;2584778;54;20165;31
2023/11/22 04:07:01;;;;;;;20.73;10.50;;;-0.30;99.90;;;;;;2585008;54;20694;31
2023/11/22 04:09:36;;;;;;;23.15;11.65;;;-0.30;99.90;;;;;;2585004;54;20065;31
2023/11/22 04:12:14;;;;;;;28.10;10.75;;;-0.30;99.90;;;;;;2584904;54;20897;31
2023/11/22 04:14:47;;;;;;;22.30;11.90;;;-0.30;99.90;;;;;;2585148;47;20061;31
2023/11/22 04:17:23;;;;;;;19.70;10.35;;;-0.30;99.90;;;;;;2585301;54;20936;31
2023/11/22 04:19:58;;;;;;;23.38;11.27;;;-0.30;99.90;;;;;;2585076;54;20034;31
2023/11/22 04:22:33;;;;;;;23.30;9.90;;;-0.40;99.90;;;;;;2585195;54;21147;31
2023/11/22 04:25:08;;;;;;;19.85;10.00;;;-0.40;99.90;;;;;;2683007;39;21114;31
2023/11/22 04:27:46;;;;;;;23.40;11.40;;;-0.30;99.90;;;;;;2585126;54;20937;31
2023/11/22 04:30:21;;;;;;;22.42;11.57;;;-0.30;99.90;;;;;;2585115;54;20043;31
2023/11/22 04:32:56;;;;;;;22.98;11.02;;;-0.30;99.90;;;;;;2585688;54;20089;31
2023/11/22 04:35:34;;;;;;;24.20;12.00;;;0.00;99.90;;;;;;2585955;54;20964;31
2023/11/22 04:38:07;;;;;;;21.83;10.75;;;;;;;;;;2585631;54;20241;31
2023/11/22 04:40:42;;;;;;;19.88;10.90;;;-0.20;99.90;;;;;;2585518;54;20973;31
2023/11/22 04:43:19;;;;;;;21.50;10.10;;;;;;;;;;2585855;54;20153;31
2023/11/22 04:45:54;;;;;;;23.50;11.05;;;-0.20;99.90;;;;;;2585568;54;20033;31
2023/11/22 04:48:32;;;;;;;20.48;10.85;;;;;;;;;;2586934;54;20104;-80
2023/11/22 04:51:06;;;;;;;22.75;12.10;;;-0.20;99.90;;;;;;2604330;46;20027;31
2023/11/22 04:53:39;;;;;;;21.70;10.70;;;-0.20;99.90;;;;;;2603954;46;20941;31
2023/11/22 04:56:16;;;;;;;22.98;11.38;;;-0.20;99.90;;;;;;2585561;54;20034;31
2023/11/22 04:58:52;;;;;;;22.98;11.82;;;-0.20;99.90;;;;;;2604042;46;20030;31
2023/11/22 05:01:25;;;;;;;20.27;10.93;;;-0.20;99.90;;;;;;2604352;46;22495;31
2023/11/22 05:04:00;;;;;;;23.95;11.65;;;0.30;99.90;;;;;;2604348;46;20805;31
2023/11/22 05:06:40;;;;;;;19.10;10.43;;;-0.30;99.90;;;;;;2585709;54;20057;31
2023/11/22 05:09:13;;;;;;;21.85;10.98;;;-0.30;99.90;;;;;;2585419;54;20093;31
2023/11/22 05:11:48;;;;;;;20.67;10.73;;;-0.20;99.90;;;;;;2585465;54;20786;31
2023/11/22 05:14:26;;;;;;;21.10;10.00;;;-0.30;99.90;;;;;;2585653;54;20974;31
2023/11/22 05:17:00;;;;;;;22.35;10.00;;;-0.20;99.90;;;;;;2604130;46;22514;31
2023/11/22 05:19:36;;;;;;;19.80;10.95;;;-0.20;99.90;;;;;;2683675;39;21071;31
2023/11/22 05:22:09;;;;;;;21.85;10.95;;;-0.20;99.90;;;;;;2604302;46;21137;31
2023/11/22 05:24:43;;;;;;;27.43;14.17;;;-0.20;99.90;;;;;;2585573;54;20026;31
2023/11/22 05:27:17;;;;;;;20.55;9.52;;;-0.20;99.90;;;;;;2585540;54;20290;31
2023/11/22 05:29:54;;;;;;;23.67;10.57;;;-0.20;99.90;;;;;;2585372;54;20129;31
2023/11/22 05:32:31;;;;;;;41.77;16.57;;;0.20;99.90;;;;;;2585422;54;20030;31
2023/11/22 05:35:06;;;;;;;26.30;13.65;;;-0.20;99.90;;;;;;2585717;54;21910;31
2023/11/22 05:37:41;;;;;;;23.90;11.30;;;-0.20;99.90;;;;;;2585598;54;20953;31
2023/11/22 05:40:15;;;;;;;;;;;-0.10;99.90;;;;;;2585630;54;21917;31
2023/11/22 05:42:48;;;;;;;18.63;9.10;;;-0.10;99.90;;;;;;2603799;46;19935;31
2023/11/22 05:45:24;;;;;;;23.40;10.18;;;-0.10;99.90;;;;;;2585805;54;20238;31
2023/11/22 05:47:58;;;;;;;;;;;-0.10;99.90;;;;;;2585546;54;20117;31
2023/11/22 05:50:33;;;;;;;18.15;8.80;;;-0.10;99.90;;;;;;2585523;54;20028;31
2023/11/22 05:53:08;;;;;;;17.15;7.63;;;-0.10;99.90;;;;;;2585554;54;20145;31
2023/11/22 05:55:44;;;;;;;17.65;7.70;;;-0.20;99.90;;;;;;2585441;54;20973;31
2023/11/22 05:58:22;;;;;;;17.10;7.65;;;-0.10;99.90;;;;;;2585598;54;20030;31
2023/11/22 06:00:58;;;;;;;18.35;8.55;;;-0.10;99.90;;;;;;2585201;54;20791;31
2023/11/22 06:03:32;;;;;;;17.90;8.17;;;-0.20;99.90;;;;;;2585478;54;20860;31
2023/11/22 06:06:07;;;;;;;16.87;8.07;;;-0.20;99.90;;;;;;2585720;54;20817;31
2023/11/22 06:08:42;;;;;;;23.10;9.70;;;-0.10;99.90;;;;;;2585440;54;20029;31
2023/11/22 06:11:20;;;;;;;16.67;8.60;;;0.00;99.90;;;;;;2585487;54;20026;31
2023/11/22 06:13:54;;;;;;;18.75;9.02;;;-0.20;99.90;;;;;;2585586;54;20926;31
2023/11/22 06:16:33;;;;;;;12.18;6.65;;;-0.20;99.90;;;;;;2585482;54;20031;31
2023/11/22 06:19:07;;;;;;;17.65;9.10;;;-0.20;99.90;;;;;;2585610;54;21197;31
2023/11/22 06:21:40;;;;;;;19.53;9.33;;;-0.10;99.90;;;;;;2604188;46;22391;31
2023/11/22 06:24:15;;;;;;;17.00;8.55;;;-0.20;99.90;;;;;;2585532;54;21138;31
2023/11/22 06:26:50;;;;;;;19.53;9.37;;;-0.20;99.90;;;;;;2585616;54;20029;31
2023/11/22 06:29:29;;;;;;;18.65;9.35;;;-0.10;99.90;;;;;;2584867;54;20168;31
2023/11/22 06:32:06;;;;;;;19.37;8.93;;;-0.10;99.90;;;;;;2604024;46;20899;31
2023/11/22 06:34:41;;;;;;;16.65;8.20;;;-0.10;99.90;;;;;;2585492;54;20928;31
2023/11/22 06:37:14;;;;;;;17.42;8.57;;;-0.10;99.90;;;;;;2585636;54;22823;31
2023/11/22 06:39:48;;;;;;;15.35;8.15;;;-0.10;99.90;;;;;;2585328;54;19980;31
2023/11/22 06:42:22;;;;;;;18.20;8.95;;;-0.10;99.90;;;;;;2585373;54;20310;31
2023/11/22 06:45:00;;;;;;;17.80;7.65;;;0.00;99.90;;;;;;2585581;54;20079;31
2023/11/22 06:47:37;;;;;;;18.60;7.47;;;-0.10;99.90;;;;;;2603873;46;20910;31
2023/11/22 06:50:12;;;;;;;14.45;8.05;;;-0.10;99.90;;;;;;2603751;46;20930;31
2023/11/22 06:52:47;;;;;;;16.30;7.55;;;-0.10;99.90;;;;;;2585710;54;21111;31
2023/11/22 06:55:21;;;;;;;21.23;8.73;;;0.00;99.90;;;;;;2585058;54;20029;31
2023/11/22 06:57:58;;;;;;;18.70;9.00;;;0.00;99.90;;;;;;2585256;54;20945;31
2023/11/22 07:00:30;;;;;;;19.13;8.63;;;0.00;99.90;;;;;;2585389;54;20085;31
2023/11/22 07:03:07;;;;;;;20.10;8.63;;;0.00;99.90;;;;;;2585565;54;20026;31
2023/11/22 07:05:41;;;;;;;14.67;7.97;;;0.00;99.90;;;;;;2604233;46;20026;31
2023/11/22 07:08:16;;;;;;;16.13;8.15;;;0.00;99.90;;;;;;2701773;39;21599;31
2023/11/22 07:10:50;;;;;;;18.13;7.78;;;0.00;99.90;;;;;;2585304;54;20153;31
2023/11/22 07:13:24;;;;;;;16.23;7.13;;;0.00;99.90;;;;;;2604059;46;20037;31
2023/11/22 07:16:00;;;;;;;17.90;8.30;;;-0.10;99.90;;;;;;2585191;54;20985;31
2023/11/22 07:18:39;;;;;;;19.05;8.40;;;0.00;99.90;;;;;;2604182;46;20033;31
2023/11/22 07:21:17;;;;;;;17.30;7.05;;;0.00;99.90;;;;;;2585237;54;20164;31
2023/11/22 07:23:52;;;;;;;16.73;8.27;;;0.00;99.90;;;;;;2604000;46;21123;31
2023/11/22 07:26:30;;;;;;;18.90;8.60;;;0.00;99.90;;;;;;2585385;54;20894;31
2023/11/22 07:29:06;;;;;;;18.90;8.20;;;0.10;99.90;;;;;;2585011;54;20287;31
2023/11/22 07:31:42;;;;;;;19.42;8.93;;;0.10;99.90;;;;;;2584828;54;21046;31
2023/11/22 07:34:19;;;;;;;16.13;8.07;;;0.10;99.90;;;;;;2603520;46;20995;31
2023/11/22 07:36:54;;;;;;;18.73;9.55;;;0.30;99.90;;;;;;2604001;46;20026;31
2023/11/22 07:39:29;;;;;;;21.63;9.57;;;0.20;99.90;;;;;;2585172;54;20787;31
2023/11/22 07:42:03;;;;;;;24.33;9.20;;;0.10;99.90;;;;;;2603641;46;20915;31
2023/11/22 07:44:38;;;;;;;29.53;12.40;;;0.20;99.90;;;;;;2584911;54;20342;31
2023/11/22 07:47:13;;;;;;;22.55;9.88;;;0.20;99.90;;;;;;2584998;54;21138;31
2023/11/22 07:49:51;;;;;;;25.48;10.70;;;0.20;99.90;;;;;;2585203;54;20022;31
2023/11/22 07:52:29;;;;;;;21.27;9.53;;;0.20;99.90;;;;;;2585087;54;20984;31
2023/11/22 07:55:03;;;;;;;25.83;11.35;;;0.40;99.90;;;;;;2603490;47;20802;31
2023/11/22 07:57:38;;;;;;;22.40;11.00;;;0.40;99.90;;;;;;2585257;54;20027;31
2023/11/22 08:00:14;;;;;;;23.15;11.38;;;0.40;99.90;;;;;;2584843;54;20959;31
2023/11/22 08:02:49;;;;;;;25.77;12.40;;;0.40;99.90;;;;;;2585300;54;20022;31
2023/11/22 08:05:27;;;;;;;26.30;12.50;;;0.40;99.90;;;;;;2585119;54;20974;31
2023/11/22 08:08:06;;;;;;;23.20;11.95;;;0.30;99.90;;;;;;2604580;46;20033;31
2023/11/22 08:10:42;;;;;;;27.40;12.35;;;0.20;99.90;;;;;;2585814;54;20026;31
2023/11/22 08:13:19;;;;;;;21.25;10.80;;;0.10;99.90;;;;;;2585922;54;20884;31
2023/11/22 08:15:54;;;;;;;21.20;11.47;;;0.10;99.90;;;;;;2604206;46;20887;31
2023/11/22 08:18:29;;;;;;;28.93;13.13;;;0.10;99.90;;;;;;2604121;46;20060;31
2023/11/22 08:21:06;;;;;;;;;;;0.10;99.90;;;;;;2604922;46;21222;31
2023/11/22 08:23:44;;;;;;;24.10;12.50;;;0.30;99.90;;;;;;2585772;54;19934;31
2023/11/22 08:26:18;;;;;;;23.00;11.23;;;0.50;99.90;;;;;;2604070;46;21019;31
2023/11/22 08:28:53;;;;;;;22.17;11.27;;;0.90;99.90;;;;;;2585908;54;20030;31
2023/11/22 08:31:27;;;;;;;21.17;11.17;;;1.20;99.90;;;;;;2585588;54;21020;31
2023/11/22 08:34:03;;;;;;;24.08;13.20;;;1.50;99.90;;;;;;2604326;46;20081;31
2023/11/22 08:36:39;;;;;;;22.67;12.18;;;1.90;99.90;;;;;;2684186;39;20980;31
2023/11/22 08:39:14;;;;;;;24.48;11.80;;;1.80;99.90;;;;;;2585770;54;20031;31
2023/11/22 08:41:49;;;;;;;21.25;11.68;;;2.00;99.90;;;;;;2585588;54;20101;31
2023/11/22 08:44:24;;;;;;;22.35;11.65;;;2.20;99.90;;;;;;2604183;46;19956;31
2023/11/22 08:46:59;;;;;;;20.17;10.63;;;2.40;99.90;;;;;;2604041;46;20058;31
2023/11/22 08:49:32;;;;;;;22.65;12.50;;;2.60;99.90;;;;;;2585750;54;22663;31
2023/11/22 08:52:09;;;;;;;20.00;10.90;;;2.90;99.90;;;;;;2604040;46;20085;31
2023/11/22 08:54:44;;;;;;;19.95;11.35;;;3.10;99.90;;;;;;2585805;54;20951;31
2023/11/22 08:57:18;;;;;;;19.58;11.98;;;3.30;99.90;;;;;;2585641;54;20030;31
2023/11/22 08:59:56;;;;;;;21.10;11.67;;;3.40;99.90;;;;;;2604461;46;20052;31
2023/11/22 09:02:30;;;;;;;18.80;9.45;;;3.50;99.90;;;;;;2584816;54;22128;31
2023/11/22 09:05:04;;;;;;;20.30;10.38;;;3.40;98.90;;;;;;2683623;39;21093;31
2023/11/22 09:07:44;;;;;;;20.10;10.85;;;3.30;97.00;;;;;;2585528;54;20066;31
2023/11/22 09:10:21;;;;;;;19.60;9.10;;;3.60;94.30;;;;;;2585814;54;20016;31
2023/11/22 09:12:55;;;;;;;17.05;8.40;;;3.60;91.20;;;;;;2585354;54;20078;31
2023/11/22 09:15:30;;;;;;;17.40;8.43;;;;;;;;;;2585908;54;20027;31
2023/11/22 09:18:04;;;;;;;17.35;9.43;;;;;;;;;;2584875;54;20911;31
2023/11/22 09:20:39;;;;;;;17.27;9.75;;;;;;;;;;2585638;54;20798;31
2023/11/22 09:23:16;;;;;;;14.85;8.55;;;;;;;;;;2585216;54;20034;31
2023/11/22 09:25:50;;;;;;;18.77;8.98;;;3.60;70.70;;;;;;2604065;46;20027;31
2023/11/22 09:28:25;;;;;;;19.20;9.60;;;3.50;58.70;;;;;;2604506;46;20026;31
2023/11/22 09:31:05;;;;;;;17.87;9.80;;;3.30;64.40;;;;;;2585562;54;20958;31
2023/11/22 09:33:43;;;;;;;19.23;10.53;;;3.10;75.40;;;;;;2585424;54;21002;31
2023/11/22 09:36:19;;;;;;;18.75;11.00;;;2.30;75.70;;;;;;2585695;54;20828;31
2023/11/22 09:38:55;;;;;;;;;;;2.80;77.30;;;;;;2585690;54;20051;31
2023/11/22 09:41:30;;;;;;;17.35;9.10;;;2.60;81.70;;;;;;2585548;54;20860;31
2023/11/22 09:44:10;;;;;;;17.00;8.10;;;2.50;79.30;;;;;;2585490;54;20022;31
2023/11/22 09:46:46;;;;;;;15.40;8.60;;;2.40;87.80;;;;;;2603668;46;20949;31
2023/11/22 09:49:25;;;;;;;15.63;7.82;;;2.60;92.60;;;;;;2585427;54;20878;31
2023/11/22 09:51:58;;;;;;;13.10;7.50;;;2.70;79.60;;;;;;2603744;46;20034;31
2023/11/22 09:54:36;;;;;;;17.00;7.53;;;2.90;80.50;;;;;;2585515;54;20907;31
2023/11/22 09:57:10;;;;;;;17.60;7.85;;;3.20;85.60;;;;;;2585486;54;20900;31
2023/11/22 09:59:45;;;;;;;15.17;7.57;;;3.20;77.00;;;;;;2585264;46;21061;31
2023/11/22 10:02:18;;;;;;;13.00;7.67;;;3.40;71.90;;;;;;2585098;54;20236;31
2023/11/22 10:04:55;;;;;;;14.25;8.15;;;3.50;68.30;;;;;;2585173;54;21000;31
2023/11/22 10:07:30;;;;;;;14.10;7.65;;;3.50;56.80;;;;;;2585463;54;20925;31
2023/11/22 10:10:11;;;;;;;13.82;7.32;;;3.50;55.70;;;;;;2585669;54;21124;31
2023/11/22 10:12:47;;;;;;;12.13;6.85;;;3.50;59.70;;;;;;2603742;46;20968;31
2023/11/22 10:15:24;;;;;;;17.15;8.70;;;3.60;49.20;;;;;;2585088;54;20802;31
2023/11/22 10:18:00;;;;;;;18.60;8.30;;;3.60;70.50;;;;;;2585856;54;21147;31
2023/11/22 10:20:39;;;;;;;;;;;3.40;54.40;;;;;;2585724;54;20035;31
2023/11/22 10:23:17;;;;;;;19.10;9.43;;;3.20;54.10;;;;;;2585347;54;20825;31
2023/11/22 10:25:55;;;;;;;13.73;8.43;;;3.00;66.60;;;;;;2585568;54;20902;31
2023/11/22 10:28:30;;;;;;;16.03;8.57;;;2.90;68.60;;;;;;2683315;39;21079;31
2023/11/22 10:31:04;;;;;;;16.50;9.95;;;2.80;70.10;;;;;;2585305;54;20750;31
2023/11/22 10:33:41;;;;;;;22.10;12.13;;;2.50;76.80;;;;;;2585413;54;20062;31
2023/11/22 10:36:15;;;;;;;16.30;9.10;;;2.50;80.50;;;;;;2604139;46;20960;31
2023/11/22 10:38:50;;;;;;;20.27;9.77;;;2.40;92.60;;;;;;2585633;54;22514;31
2023/11/22 10:41:29;;;;;;;18.30;9.55;;;2.30;92.90;;;;;;2585318;54;21016;31
2023/11/22 10:44:06;;;;;;;18.57;9.90;;;2.10;95.90;;;;;;2585416;54;20026;31
2023/11/22 10:46:42;;;;;;;22.45;10.30;;;2.30;99.90;;;;;;2585197;54;20985;31
2023/11/22 10:49:18;;;;;;;16.00;8.70;;;2.20;99.90;;;;;;2683517;39;22413;31
2023/11/22 10:51:52;;;;;;;;;;;2.20;94.20;;;;;;2585675;54;19938;31
2023/11/22 10:54:26;;;;;;;17.35;8.90;;;2.10;93.20;;;;;;2585510;54;19984;31
2023/11/22 10:57:03;;;;;;;16.45;8.85;;;2.10;95.20;;;;;;2585302;54;20978;31
2023/11/22 10:59:36;;;;;;;14.80;7.82;;;2.00;97.70;;;;;;2585423;54;21865;31
2023/11/22 11:02:11;;;;;;;20.70;9.45;;;1.90;98.20;;;;;;2584851;54;20834;31
2023/11/22 11:04:49;;;;;;;18.30;9.40;;;1.90;95.60;;;;;;2585147;54;20811;31
2023/11/22 11:08:03;;;;;;;18.00;9.85;;;1.80;99.10;;;;;;2585265;54;20085;31
2023/11/22 11:10:45;;;;;;;17.05;8.25;;;1.80;96.40;;;;;;2585425;54;20896;31
2023/11/22 11:13:23;;;;;;;20.05;10.00;;;1.70;96.40;;;;;;2585347;54;20871;31
2023/11/22 11:15:56;;;;;;;21.40;10.20;;;1.70;98.00;;;;;;2585488;54;21163;31
2023/11/22 11:18:32;;;;;;;15.75;9.32;;;1.70;99.60;;;;;;2585099;54;20888;31
2023/11/22 11:21:11;;;;;;;16.40;9.13;;;1.70;96.60;;;;;;2585166;54;20026;31
2023/11/22 11:23:45;;;;;;;17.30;9.60;;;1.70;99.10;;;;;;2603527;46;21229;31
2023/11/22 11:26:21;;;;;;;17.20;9.80;;;1.60;99.20;;;;;;2585314;54;20926;31
2023/11/22 11:28:58;;;;;;;17.25;9.32;;;1.50;99.40;;;;;;2585438;54;20022;31
2023/11/22 11:31:37;;;;;;;14.80;9.70;;;1.60;96.00;;;;;;2585058;54;20817;31
2023/11/22 11:34:13;;;;;;;15.03;9.30;;;1.70;96.30;;;;;;2585307;54;20961;31
2023/11/22 11:36:47;;;;;;;20.53;10.57;;;1.70;95.30;;;;;;2585389;54;20054;31
2023/11/22 11:39:24;;;;;;;14.97;9.33;;;1.70;99.90;;;;;;2584829;54;20026;31
2023/11/22 11:42:13;;;;;;;18.45;10.00;;;1.70;99.90;;;;;;2584697;54;20918;31
2023/11/22 11:45:12;;;;;;;15.80;9.10;;;1.70;99.90;;;;;;2585074;54;20027;31
2023/11/22 11:47:47;;;;;;;16.33;9.40;;;1.80;99.30;;;;;;2683170;39;21450;31
2023/11/22 11:50:21;;;;;;;17.55;9.52;;;1.70;99.90;;;;;;2584875;54;20031;31
2023/11/22 11:52:55;;;;;;;17.17;9.25;;;1.70;99.90;;;;;;2603496;47;20987;31
2023/11/22 11:55:30;;;;;;;13.90;8.10;;;1.70;99.90;;;;;;2603682;47;20790;31
2023/11/22 11:58:10;;;;;;;13.50;7.30;;;1.70;98.20;;;;;;2585220;54;20950;31
2023/11/22 12:00:46;;;;;;;14.75;8.23;;;1.70;98.80;;;;;;2585107;54;20027;31
2023/11/22 12:03:21;;;;;;;12.00;7.40;;;1.60;99.70;;;;;;2585097;54;20023;31
2023/11/22 12:05:59;;;;;;;12.50;7.85;;;1.60;97.80;;;;;;2584997;54;20960;31
2023/11/22 12:08:36;;;;;;;16.23;7.75;;;1.60;92.90;;;;;;2585191;54;20980;31
2023/11/22 12:11:11;;;;;;;15.20;7.80;;;1.60;76.20;;;;;;2585011;54;21041;31
2023/11/22 12:13:46;;;;;;;13.30;7.70;;;1.60;79.70;;;;;;2585146;54;20825;31
2023/11/22 12:16:22;;;;;;;14.05;8.55;;;1.60;79.70;;;;;;2603710;47;21120;31
2023/11/22 12:18:58;;;;;;;16.52;7.72;;;1.50;91.40;;;;;;2585223;54;20942;31
2023/11/22 12:21:33;;;;;;;14.20;8.55;;;1.50;82.10;;;;;;2585068;54;21946;31
2023/11/22 12:24:10;;;;;;;13.75;8.30;;;1.50;90.70;;;;;;2584847;54;20026;31
2023/11/22 12:26:43;;;;;;;13.55;7.95;;;1.50;99.90;;;;;;2585177;54;21298;31
2023/11/22 12:29:19;;;;;;;14.35;7.72;;;1.50;99.90;;;;;;2585260;54;20029;31
2023/11/22 12:31:59;;;;;;;13.85;8.20;;;1.50;98.70;;;;;;2584942;54;20030;31
2023/11/22 12:34:33;;;;;;;17.40;8.30;;;1.50;99.90;;;;;;2584960;54;20994;31
2023/11/22 12:37:08;;;;;;;15.25;7.70;;;1.50;93.40;;;;;;2584929;54;20033;31
2023/11/22 12:39:48;;;;;;;13.50;7.85;;;1.40;94.10;;;;;;2585113;54;21002;31
2023/11/22 12:42:22;;;;;;;14.47;8.23;;;1.50;87.70;;;;;;2585181;54;20033;31
2023/11/22 12:44:59;;;;;;;32.93;14.47;;;1.50;92.30;;;;;;2584870;54;20925;31
2023/11/22 12:47:40;;;;;;;27.58;12.45;;;1.50;90.00;;;;;;2603193;47;20997;31
2023/11/22 12:50:33;;;;;;;25.10;10.75;;;1.40;83.90;;;;;;2584925;54;20885;31
2023/11/22 12:53:13;;;;;;;28.30;11.07;;;1.50;90.60;;;;;;2585394;54;20022;31
2023/11/22 12:55:49;;;;;;;19.97;10.23;;;1.40;75.80;;;;;;2604173;46;20960;31
2023/11/22 12:58:24;;;;;;;17.65;9.40;;;1.40;79.70;;;;;;2604207;46;22525;31
2023/11/22 13:01:00;;;;;;;15.77;8.65;;;1.30;83.40;;;;;;2585685;54;20030;31
2023/11/22 13:03:37;;;;;;;13.82;7.72;;;1.30;81.20;;;;;;2585647;54;20930;31
2023/11/22 13:06:12;;;;;;;12.80;8.00;;;1.30;89.20;;;;;;2585917;54;20030;31
2023/11/22 13:08:47;;;;;;;12.15;6.70;;;1.30;94.30;;;;;;2585700;54;20942;31
2023/11/22 13:11:21;;;;;;;13.60;7.00;;;1.20;93.50;;;;;;2604308;46;20802;31
2023/11/22 13:13:56;;;;;;;10.40;6.55;;;1.20;95.10;;;;;;2585572;54;20800;31
2023/11/22 13:16:32;;;;;;;15.47;7.20;;;1.20;99.60;;;;;;2585778;54;20982;31
2023/11/22 13:19:10;;;;;;;12.65;8.02;;;1.20;99.90;;;;;;2585593;54;20116;31
2023/11/22 13:21:44;;;;;;;14.25;8.15;;;1.10;99.90;;;;;;2585679;54;20805;31
2023/11/22 13:24:20;;;;;;;15.23;7.40;;;1.20;99.90;;;;;;2585699;54;20073;31
2023/11/22 13:26:56;;;;;;;14.65;7.85;;;1.10;99.90;;;;;;2585692;54;20027;31
2023/11/22 13:29:31;;;;;;;11.88;7.55;;;1.10;99.90;;;;;;2585590;54;20101;31
2023/11/22 13:32:04;;;;;;;12.20;7.50;;;1.10;99.90;;;;;;2585162;54;21978;31
2023/11/22 13:34:42;;;;;;;11.57;7.00;;;1.20;99.90;;;;;;2585112;54;20898;31
2023/11/22 13:37:15;;;;;;;20.10;7.15;;;1.00;99.20;;;;;;2585568;54;20031;31